首页
METAR-TAF:

METAR-TAF

机场 :

Crystal Airport

明尼阿波利斯 / Crystal, 明尼蘇達州, 美国

纬度: 45-03-45N, 经度: 093-21-03W, 海拔: 264米

当前天气观测

该预报发布于28分钟前的07:53 UTC
风速6节,风向
温度 3°C
湿度 87%
气压 1013 hPa
能見度: 9.7公里
散云层高于3000英尺
多云层高于4000英尺
阴天层高于5500英尺
小雨

METAR: KMIC 170753Z AUTO 17006KT 6SM -RA SCT030 BKN040 OVC055 03/01 A2992 RMK AO2 RAE04B29 SLP138 P0000 T00330006 $

时间: 02:21 (08:21 UTC)


TAF: 丢失

超过4000个机场的气象观测和天气预报(METAR&TAF报告)。

可查询的气象台以黄色和红色小点在地图上表示。

将鼠标移到小点上方,可查看气象台名称。

然后点击查看天气观测和预报。

如需切换地图:点击带黑十字的绿色按钮放大地图;点击带横线的绿色按钮缩小地图;或者点击绿色箭头查看邻近地区的地图。


METAR-TAF: